Time;durP1;ratioP1;P1;durP2;ratioP2;P2;SDS_P1;SDS_P2;PMS_P1;PMS_P2;Temp;Humidity;BMP_temperature;BMP_pressure;BME280_temperature;BME280_humidity;BME280_pressure;Samples;Min_cycle;Max_cycle;Signal;HPM_P1;HPM_P2
2023/06/17 00:02:05;;;;;;;16.15;11.23;;;486.90;2380.80;;;;;;4838000;29;20450;-75
2023/06/17 00:04:31;;;;;;;22.08;11.27;;;486.80;1996.80;;;;;;4848139;29;20557;-75
2023/06/17 00:06:57;;;;;;;17.15;11.35;;;486.90;2380.80;;;;;;4854612;29;20029;-75
2023/06/17 00:09:22;;;;;;;19.70;10.35;;;486.90;2380.80;;;;;;4850255;29;20378;-75
2023/06/17 00:11:48;;;;;;;20.10;10.02;;;486.90;2380.80;;;;;;4850583;29;20388;-75
2023/06/17 00:14:16;;;;;;;18.67;9.93;;;486.80;2380.80;;;;;;4835022;29;20037;-75
2023/06/17 00:16:45;;;;;;;14.77;9.38;;;486.90;2380.80;;;;;;4845723;29;20405;-76
2023/06/17 00:19:15;;;;;;;15.93;9.38;;;486.80;2380.80;;;;;;4850071;29;20037;-74
2023/06/17 00:21:42;;;;;;;16.45;8.80;;;486.80;2380.80;;;;;;4849502;29;20022;-75
2023/06/17 00:24:08;;;;;;;14.15;9.40;;;486.90;2380.80;;;;;;4847898;29;20099;-77
2023/06/17 00:26:36;;;;;;;13.07;8.90;;;486.90;2380.80;;;;;;4844931;29;20153;-74
2023/06/17 00:29:01;;;;;;;20.45;9.77;;;486.80;2380.80;;;;;;4851584;29;20468;-75
2023/06/17 00:31:27;;;;;;;16.52;9.82;;;486.80;2380.80;;;;;;4853683;29;20034;-74
2023/06/17 00:33:53;;;;;;;12.18;8.77;;;486.80;2380.80;;;;;;4848234;29;20493;-76
2023/06/17 00:36:18;;;;;;;12.90;8.27;;;486.80;2380.80;;;;;;4853546;29;20552;-76
2023/06/17 00:38:44;;;;;;;13.60;8.77;;;486.80;2380.80;;;;;;4849327;29;20430;-75
2023/06/17 00:41:10;;;;;;;14.02;8.52;;;486.80;2380.80;;;;;;4851794;29;20037;-74
2023/06/17 00:43:35;;;;;;;12.43;9.93;;;486.80;2380.80;;;;;;4848364;29;20077;-75
2023/06/17 00:46:01;;;;;;;13.98;9.32;;;486.80;2380.80;;;;;;4852207;29;20069;-74
2023/06/17 00:48:27;;;;;;;15.52;9.05;;;486.80;2380.80;;;;;;4855300;29;20022;-74
2023/06/17 00:50:53;;;;;;;16.27;9.77;;;486.80;2380.80;;;;;;4850927;29;20061;-74
2023/06/17 00:53:19;;;;;;;17.90;9.63;;;486.80;2380.80;;;;;;4858909;29;20094;-75
2023/06/17 00:55:45;;;;;;;16.88;10.50;;;486.80;2380.80;;;;;;4849625;29;21101;-79
2023/06/17 00:58:11;;;;;;;13.85;9.75;;;486.80;2380.80;;;;;;4862117;29;20121;-74
2023/06/17 01:00:37;;;;;;;15.90;10.07;;;486.80;2380.80;;;;;;4862168;29;20385;-75
2023/06/17 01:03:05;;;;;;;17.38;10.98;;;486.80;2380.80;;;;;;4863286;29;20033;-75
2023/06/17 01:05:32;;;;;;;16.30;10.93;;;486.80;2380.80;;;;;;4861982;29;20073;-75
2023/06/17 01:08:14;;;;;;;18.20;9.60;;;486.80;2380.80;;;;;;4863287;29;20030;-75
2023/06/17 01:11:01;;;;;;;20.42;10.35;;;486.80;2380.80;;;;;;4863069;29;20022;-75
2023/06/17 01:13:28;;;;;;;18.33;11.50;;;486.80;2380.80;;;;;;4862992;29;20060;-76
2023/06/17 01:15:54;;;;;;;18.45;10.57;;;486.80;2380.80;;;;;;4862896;29;20098;-75
2023/06/17 01:18:21;;;;;;;17.30;9.80;;;486.80;2380.80;;;;;;4861733;29;20046;-75
2023/06/17 01:20:51;;;;;;;15.43;10.63;;;486.80;2380.80;;;;;;4862135;29;20030;-76
2023/06/17 01:23:21;;;;;;;14.07;9.98;;;486.80;2380.80;;;;;;4862872;29;20115;-79
2023/06/17 01:25:49;;;;;;;16.27;10.38;;;486.80;2380.80;;;;;;4862737;29;20030;-75
2023/06/17 01:28:16;;;;;;;15.48;10.32;;;486.80;2380.80;;;;;;4863036;29;20040;-80
2023/06/17 01:30:54;;;;;;;14.05;9.95;;;486.80;2380.80;;;;;;4862959;29;20026;-76
2023/06/17 01:33:21;;;;;;;17.60;9.40;;;486.80;2380.80;;;;;;4862598;29;20026;-74
2023/06/17 01:36:03;;;;;;;16.67;10.68;;;486.80;2380.80;;;;;;4863274;29;20417;-75
2023/06/17 01:38:42;;;;;;;15.88;10.13;;;486.70;2380.80;;;;;;4862664;29;20033;-79
2023/06/17 01:41:14;;;;;;;22.15;9.93;;;486.70;2380.80;;;;;;4879650;29;20531;-76
2023/06/17 01:43:42;;;;;;;15.40;9.20;;;486.70;2380.80;;;;;;4881026;29;20029;-79
2023/06/17 01:46:11;;;;;;;15.77;8.07;;;486.70;2380.80;;;;;;4880049;29;20040;-75
2023/06/17 01:48:38;;;;;;;10.63;7.10;;;486.70;2380.80;;;;;;4880844;29;20040;-76
2023/06/17 01:51:04;;;;;;;11.55;7.70;;;486.70;2380.80;;;;;;4880936;29;20353;-79
2023/06/17 01:53:30;;;;;;;9.23;6.38;;;486.70;2380.80;;;;;;4880731;29;20091;-75
2023/06/17 01:55:56;;;;;;;13.57;6.80;;;486.70;2380.80;;;;;;4863899;29;20033;-78
2023/06/17 01:58:22;;;;;;;15.48;6.93;;;486.70;2380.80;;;;;;4880792;29;20571;-76
2023/06/17 02:00:47;;;;;;;9.18;6.90;;;486.70;2380.80;;;;;;4880503;29;20035;-75
2023/06/17 02:03:13;;;;;;;9.82;6.45;;;486.70;2380.80;;;;;;4880781;29;20033;-75
2023/06/17 02:05:39;;;;;;;11.65;6.40;;;486.70;2380.80;;;;;;4880446;29;20056;-79
2023/06/17 02:08:05;;;;;;;12.77;6.82;;;486.60;2380.80;;;;;;4880268;29;20128;-76
2023/06/17 02:10:32;;;;;;;10.25;6.75;;;486.70;2380.80;;;;;;4879685;29;20434;-78
2023/06/17 02:13:00;;;;;;;11.80;6.90;;;486.70;2380.80;;;;;;4880725;29;20052;-79
2023/06/17 02:15:27;;;;;;;13.32;7.40;;;;;;;;;;4879605;29;20041;-76
2023/06/17 02:17:53;;;;;;;12.63;5.97;;;486.70;2380.80;;;;;;4880268;29;20045;-78
2023/06/17 02:20:19;;;;;;;12.57;6.38;;;486.80;2380.80;;;;;;4879043;29;20021;-76
2023/06/17 02:22:44;;;;;;;15.13;7.03;;;486.80;2380.80;;;;;;4880374;29;20033;-78
2023/06/17 02:25:11;;;;;;;11.98;6.40;;;486.70;2380.80;;;;;;4880423;29;20025;-77
2023/06/17 02:27:37;;;;;;;8.93;6.40;;;486.70;2380.80;;;;;;4880539;29;20029;-75
2023/06/17 02:30:03;;;;;;;9.70;6.65;;;486.70;2380.80;;;;;;4878779;29;20029;-76
2023/06/17 02:32:29;;;;;;;13.27;6.95;;;486.70;2380.80;;;;;;4880184;29;20036;-75
2023/06/17 02:34:57;;;;;;;14.30;8.02;;;486.70;2380.80;;;;;;4879824;29;20468;-75
2023/06/17 02:37:22;;;;;;;9.00;6.53;;;486.60;2380.80;;;;;;4863264;29;20037;-75
2023/06/17 02:39:48;;;;;;;10.38;7.25;;;486.60;2380.80;;;;;;4879713;29;20120;-75
2023/06/17 02:42:14;;;;;;;14.88;6.80;;;486.60;2380.80;;;;;;4878500;29;20029;-80
2023/06/17 02:44:40;;;;;;;8.52;6.18;;;486.60;2380.80;;;;;;4879266;29;20468;-79
2023/06/17 02:47:06;;;;;;;15.02;6.60;;;486.60;2380.80;;;;;;4880155;29;20040;-74
2023/06/17 02:49:32;;;;;;;11.38;6.93;;;486.60;2380.80;;;;;;4879874;29;20028;-75
2023/06/17 02:51:57;;;;;;;11.95;7.20;;;486.70;2380.80;;;;;;4880157;29;20391;-77
2023/06/17 02:54:23;;;;;;;13.00;7.63;;;486.60;2380.80;;;;;;4879885;29;20095;-75
2023/06/17 02:56:49;;;;;;;15.52;6.95;;;486.60;2380.80;;;;;;4879556;29;20439;-79
2023/06/17 02:59:15;;;;;;;14.00;6.43;;;486.60;2380.80;;;;;;4878999;29;20028;-76
2023/06/17 03:01:42;;;;;;;9.73;7.03;;;486.60;2380.80;;;;;;4880427;29;20468;-75
2023/06/17 03:04:10;;;;;;;18.35;7.68;;;486.60;2380.80;;;;;;4862377;29;20539;-76
2023/06/17 03:06:37;;;;;;;11.48;7.25;;;486.70;2380.80;;;;;;4863120;29;20373;-76
2023/06/17 03:09:05;;;;;;;11.55;7.05;;;486.60;2380.80;;;;;;4879940;29;20357;-76
2023/06/17 03:11:31;;;;;;;12.77;6.93;;;486.50;2380.80;;;;;;4879781;29;20060;-76
2023/06/17 03:13:57;;;;;;;9.98;6.75;;;486.70;2380.80;;;;;;4879865;29;20499;-76
2023/06/17 03:16:25;;;;;;;10.05;7.20;;;486.70;2380.80;;;;;;4879164;29;20109;-76
2023/06/17 03:18:51;;;;;;;13.55;8.27;;;486.70;2380.80;;;;;;4879106;29;20547;-75
2023/06/17 03:21:17;;;;;;;8.73;6.53;;;486.80;2380.80;;;;;;4879468;29;20116;-76
2023/06/17 03:23:43;;;;;;;11.35;6.68;;;486.80;2380.80;;;;;;4879178;29;20369;-75
2023/06/17 03:26:11;;;;;;;11.65;7.07;;;486.80;2380.80;;;;;;4879443;29;20029;-76
2023/06/17 03:28:37;;;;;;;16.58;7.47;;;486.80;2380.80;;;;;;4879410;29;20101;-78
2023/06/17 03:31:03;;;;;;;17.25;7.55;;;486.80;2380.80;;;;;;4877774;29;20421;-78
2023/06/17 03:33:29;;;;;;;12.52;8.02;;;486.80;2380.80;;;;;;4879475;29;20028;-76
2023/06/17 03:35:55;;;;;;;14.50;8.25;;;486.80;2380.80;;;;;;4878929;29;20392;-75
2023/06/17 03:38:21;;;;;;;15.95;7.60;;;486.80;2380.80;;;;;;4879194;29;20511;-74
2023/06/17 03:40:47;;;;;;;11.90;7.53;;;486.80;2380.80;;;;;;4878527;29;20025;-76
2023/06/17 03:43:13;;;;;;;11.18;7.43;;;486.80;2380.80;;;;;;4879569;29;20033;-76
2023/06/17 03:45:39;;;;;;;13.10;7.57;;;486.80;2380.80;;;;;;4879289;29;20053;-77
2023/06/17 03:48:05;;;;;;;12.93;8.40;;;486.90;2380.80;;;;;;4879566;29;20399;-79
2023/06/17 03:50:31;;;;;;;11.05;7.72;;;486.90;2380.80;;;;;;4879173;29;20031;-76
2023/06/17 03:52:58;;;;;;;14.18;8.07;;;486.70;2380.80;;;;;;4879512;29;20100;-79
2023/06/17 03:55:24;;;;;;;17.15;9.27;;;486.90;2380.80;;;;;;4879317;29;20051;-76
2023/06/17 03:57:50;;;;;;;15.65;9.90;;;486.90;2380.80;;;;;;4879009;29;20080;-78
2023/06/17 04:00:16;;;;;;;18.63;9.63;;;487.00;2380.80;;;;;;4866648;29;20369;-76
2023/06/17 04:02:45;;;;;;;18.83;10.27;;;487.00;2380.80;;;;;;4879012;29;20052;-77
2023/06/17 04:05:12;;;;;;;18.25;10.25;;;487.20;2380.80;;;;;;4878679;29;20032;-77
2023/06/17 04:07:38;;;;;;;16.70;9.80;;;487.00;2380.80;;;;;;4862445;29;20029;-75
2023/06/17 04:10:08;;;;;;;17.70;10.05;;;487.00;2380.80;;;;;;4881141;29;20113;-77
2023/06/17 04:12:38;;;;;;;16.05;9.55;;;487.00;2380.80;;;;;;4882625;29;20479;-76
2023/06/17 04:15:08;;;;;;;23.67;10.68;;;487.00;2380.80;;;;;;4882144;29;20060;-79
2023/06/17 04:17:36;;;;;;;17.27;10.57;;;487.00;2380.80;;;;;;4882682;29;20064;-76
2023/06/17 04:20:06;;;;;;;16.65;10.43;;;487.00;2380.80;;;;;;4882507;29;20108;-76
2023/06/17 04:22:31;;;;;;;29.52;15.75;;;487.00;2380.80;;;;;;4882663;29;20498;-77
2023/06/17 04:24:57;;;;;;;28.05;16.52;;;487.10;2380.80;;;;;;4882415;29;20025;-78
2023/06/17 04:27:23;;;;;;;26.95;15.70;;;487.10;2380.80;;;;;;4882317;29;20029;-74
2023/06/17 04:29:49;;;;;;;25.67;14.75;;;487.10;2380.80;;;;;;4882076;29;20494;-76
2023/06/17 04:32:15;;;;;;;26.88;14.15;;;487.10;2380.80;;;;;;4882554;29;20033;-76
2023/06/17 04:34:47;;;;;;;24.05;12.52;;;487.10;2380.80;;;;;;4882377;29;20154;-79
2023/06/17 04:37:14;;;;;;;21.45;14.30;;;487.10;2380.80;;;;;;4852980;29;20074;-74
2023/06/17 04:39:41;;;;;;;18.45;12.32;;;487.10;2380.80;;;;;;4851684;29;20045;-74
2023/06/17 04:42:12;;;;;;;19.00;11.13;;;487.10;2380.80;;;;;;4851092;29;20104;-72
2023/06/17 04:44:39;;;;;;;19.60;10.50;;;487.20;2380.80;;;;;;4853150;29;20036;-74
2023/06/17 04:47:07;;;;;;;22.27;11.38;;;487.20;2380.80;;;;;;4853408;29;20029;-75
2023/06/17 04:49:38;;;;;;;21.60;11.57;;;487.10;2380.80;;;;;;4851757;29;20033;-76
2023/06/17 04:52:06;;;;;;;17.77;11.77;;;487.10;2380.80;;;;;;4863342;29;20377;-74
2023/06/17 04:54:31;;;;;;;18.15;11.65;;;487.20;2380.80;;;;;;4857471;29;20030;-74
2023/06/17 04:56:57;;;;;;;19.83;10.65;;;487.20;2380.80;;;;;;4853268;29;20101;-74
2023/06/17 04:59:24;;;;;;;20.60;11.30;;;487.30;2380.80;;;;;;4854901;29;20382;-74
2023/06/17 05:01:49;;;;;;;17.75;11.05;;;487.30;2380.80;;;;;;4851530;29;20033;-75
2023/06/17 05:04:15;;;;;;;20.35;11.48;;;487.30;2380.80;;;;;;4854205;29;20042;-75
2023/06/17 05:06:41;;;;;;;15.88;9.57;;;512.00;2380.80;;;;;;4855014;29;20025;-74
2023/06/17 05:09:07;;;;;;;23.30;11.32;;;512.00;2380.80;;;;;;4852908;29;20022;-77
2023/06/17 05:11:33;;;;;;;19.55;11.20;;;512.00;2380.80;;;;;;4849337;29;20536;-74
2023/06/17 05:13:58;;;;;;;23.45;10.25;;;512.00;2380.80;;;;;;4854478;29;20042;-74
2023/06/17 05:16:24;;;;;;;15.55;10.82;;;512.00;2380.80;;;;;;4853143;29;20182;-73
2023/06/17 05:18:49;;;;;;;19.75;11.20;;;512.00;2380.80;;;;;;4834195;29;20132;-74
2023/06/17 05:21:20;;;;;;;17.88;11.32;;;512.00;2380.80;;;;;;4854459;29;20093;-74
2023/06/17 05:23:46;;;;;;;22.38;10.13;;;487.30;2380.80;;;;;;4852464;29;20030;-75
2023/06/17 05:26:12;;;;;;;14.88;9.75;;;512.00;2380.80;;;;;;4846856;29;20041;-75
2023/06/17 05:28:37;;;;;;;19.55;9.02;;;512.00;2380.80;;;;;;4851199;29;20030;-74
2023/06/17 05:31:03;;;;;;;18.02;8.40;;;512.10;2380.80;;;;;;4852873;29;20026;-76
2023/06/17 05:33:32;;;;;;;17.33;9.32;;;512.10;2380.80;;;;;;4854118;29;20058;-75
2023/06/17 05:36:00;;;;;;;14.25;8.20;;;512.10;2380.80;;;;;;4841198;29;20026;-74
2023/06/17 05:38:27;;;;;;;13.90;7.95;;;512.20;2380.80;;;;;;4854479;29;20038;-76
2023/06/17 05:40:53;;;;;;;13.05;8.40;;;512.20;2380.80;;;;;;4849822;29;20056;-74
2023/06/17 05:43:18;;;;;;;17.73;9.38;;;512.20;2380.80;;;;;;4849390;29;20129;-74
2023/06/17 05:45:44;;;;;;;16.05;9.07;;;512.20;2380.80;;;;;;4851362;29;20033;-72
2023/06/17 05:48:10;;;;;;;19.25;8.77;;;512.30;2380.80;;;;;;4847824;29;20397;-74
2023/06/17 05:50:36;;;;;;;14.93;9.25;;;512.30;2380.80;;;;;;4855758;29;20029;-74
2023/06/17 05:53:02;;;;;;;12.20;7.65;;;512.20;2380.80;;;;;;4853428;29;20026;-74
2023/06/17 05:55:28;;;;;;;13.18;8.25;;;512.30;2380.80;;;;;;4846889;29;20138;-77
2023/06/17 05:57:54;;;;;;;17.50;8.60;;;512.20;2380.80;;;;;;4847931;29;20048;-76
2023/06/17 06:00:20;;;;;;;15.52;8.20;;;512.20;2380.80;;;;;;4849920;29;20030;-75
2023/06/17 06:02:46;;;;;;;12.15;6.82;;;512.20;2380.80;;;;;;4851415;29;20078;-77
2023/06/17 06:05:12;;;;;;;13.68;7.50;;;512.30;2380.80;;;;;;4849465;29;20025;-75
2023/06/17 06:07:37;;;;;;;12.40;7.28;;;512.20;2380.80;;;;;;4846676;29;20037;-79
2023/06/17 06:10:06;;;;;;;9.85;6.68;;;512.30;2380.80;;;;;;4850206;29;20026;-76
2023/06/17 06:12:31;;;;;;;9.35;6.82;;;512.30;2380.80;;;;;;4849936;29;20026;-75
2023/06/17 06:14:57;;;;;;;12.00;6.72;;;512.30;2380.80;;;;;;4855045;29;20389;-77
2023/06/17 06:17:24;;;;;;;9.07;5.43;;;512.30;2380.80;;;;;;4849118;29;20112;-76
2023/06/17 06:19:50;;;;;;;8.05;5.47;;;512.30;2380.80;;;;;;4847620;29;20034;-76
2023/06/17 06:22:16;;;;;;;14.35;6.32;;;512.90;2380.80;;;;;;4848948;29;20030;-75
2023/06/17 06:24:42;;;;;;;9.77;5.65;;;512.50;2380.80;;;;;;4849579;29;20087;-78
2023/06/17 06:27:07;;;;;;;12.98;6.38;;;512.50;2380.80;;;;;;4850515;29;20063;-77
2023/06/17 06:29:33;;;;;;;8.68;5.57;;;512.50;2380.80;;;;;;4850696;29;20037;-74
2023/06/17 06:31:59;;;;;;;10.57;6.55;;;512.50;2380.80;;;;;;4845570;29;20030;-74
2023/06/17 06:34:25;;;;;;;11.40;5.90;;;512.60;2380.80;;;;;;4847513;29;20066;-75
2023/06/17 06:36:50;;;;;;;10.18;6.32;;;512.60;2380.80;;;;;;4848525;29;20025;-74
2023/06/17 06:39:16;;;;;;;7.93;5.32;;;512.60;2380.80;;;;;;4849597;29;20094;-75
2023/06/17 06:41:42;;;;;;;15.98;6.15;;;512.80;2380.80;;;;;;4845467;29;20376;-74
2023/06/17 06:44:08;;;;;;;8.95;5.53;;;512.80;2380.80;;;;;;4855643;29;20723;-75
2023/06/17 06:46:34;;;;;;;9.85;6.03;;;512.90;2380.80;;;;;;4845620;29;20492;-76
2023/06/17 06:49:00;;;;;;;9.27;6.13;;;537.60;2406.40;;;;;;4844167;29;20090;-72
2023/06/17 06:51:25;;;;;;;8.75;5.20;;;512.90;2380.80;;;;;;4845625;29;20030;-74
2023/06/17 06:53:51;;;;;;;13.57;6.07;;;512.90;2380.80;;;;;;4849174;29;20033;-75
2023/06/17 06:56:17;;;;;;;9.80;6.00;;;537.60;2406.40;;;;;;4844869;29;20094;-74
2023/06/17 06:58:43;;;;;;;10.30;5.68;;;537.60;2406.40;;;;;;4853989;29;20029;-74
2023/06/17 07:01:09;;;;;;;9.73;6.05;;;537.60;2406.40;;;;;;4850883;29;20030;-72
2023/06/17 07:03:35;;;;;;;9.75;6.03;;;537.70;2406.40;;;;;;4851537;29;20037;-71
2023/06/17 07:06:00;;;;;;;7.95;5.78;;;537.80;2406.40;;;;;;4850027;29;20036;-72
2023/06/17 07:08:26;;;;;;;8.75;5.55;;;537.90;2406.40;;;;;;4849337;29;20038;-72
2023/06/17 07:10:52;;;;;;;10.55;6.43;;;537.90;2406.40;;;;;;4854851;29;20026;-76
2023/06/17 07:13:18;;;;;;;10.43;6.22;;;538.00;2406.40;;;;;;4849679;29;20489;-73
2023/06/17 07:15:45;;;;;;;9.48;6.10;;;538.00;2406.40;;;;;;4848980;29;20038;-71
2023/06/17 07:18:11;;;;;;;7.82;6.32;;;538.00;2406.40;;;;;;4848233;29;20038;-71
2023/06/17 07:20:37;;;;;;;9.40;5.40;;;538.10;2406.40;;;;;;4849891;29;20054;-72
2023/06/17 07:23:03;;;;;;;7.63;5.57;;;538.20;2406.40;;;;;;4858723;29;20025;-71
2023/06/17 07:25:29;;;;;;;8.57;5.75;;;538.30;2406.40;;;;;;4850890;29;20034;-73
2023/06/17 07:28:01;;;;;;;8.23;6.00;;;538.20;2406.40;;;;;;4851007;29;20392;-73
2023/06/17 07:30:27;;;;;;;9.68;6.72;;;538.30;2406.40;;;;;;4852936;29;20037;-75
2023/06/17 07:32:53;;;;;;;10.32;7.07;;;538.40;2406.40;;;;;;4854497;29;20025;-74
2023/06/17 07:35:19;;;;;;;15.45;6.25;;;538.40;2406.40;;;;;;4858118;29;20498;-75
2023/06/17 07:37:45;;;;;;;15.23;6.88;;;538.50;2406.40;;;;;;4853272;29;20498;-76
2023/06/17 07:40:11;;;;;;;7.60;5.85;;;538.50;2406.40;;;;;;4848559;29;20041;-76
2023/06/17 07:42:38;;;;;;;14.75;6.13;;;538.50;2406.40;;;;;;4851612;29;20025;-76
2023/06/17 07:45:05;;;;;;;9.43;6.32;;;538.50;2406.40;;;;;;4855453;29;20034;-75
2023/06/17 07:47:30;;;;;;;10.05;5.97;;;563.20;2432.00;;;;;;4857222;29;20113;-73
2023/06/17 07:49:56;;;;;;;9.88;5.28;;;563.30;2432.00;;;;;;4856040;29;20462;-78
2023/06/17 07:52:22;;;;;;;10.75;6.05;;;563.20;2432.00;;;;;;4862781;29;20029;-74
2023/06/17 07:54:48;;;;;;;8.38;5.38;;;563.40;2432.00;;;;;;4854555;29;20098;-71
2023/06/17 07:57:14;;;;;;;11.85;5.97;;;563.40;2432.00;;;;;;4850263;29;20088;-72
2023/06/17 07:59:42;;;;;;;15.23;6.38;;;563.40;2432.00;;;;;;4842698;29;20059;-72
2023/06/17 08:02:08;;;;;;;8.50;6.22;;;563.40;2432.00;;;;;;4850560;29;20025;-75
2023/06/17 08:04:34;;;;;;;8.65;5.18;;;563.60;2432.00;;;;;;4857394;29;20065;-75
2023/06/17 08:07:00;;;;;;;9.35;6.05;;;563.50;2432.00;;;;;;4855002;29;20029;-73
2023/06/17 08:09:26;;;;;;;10.40;6.00;;;563.60;2432.00;;;;;;4855911;29;20078;-71
2023/06/17 08:11:52;;;;;;;10.13;5.70;;;563.60;2432.00;;;;;;4850844;29;20045;-72
2023/06/17 08:14:18;;;;;;;10.60;6.18;;;563.70;2432.00;;;;;;4856241;29;20030;-76
2023/06/17 08:16:44;;;;;;;10.50;6.45;;;563.70;2432.00;;;;;;4851565;29;20560;-77
2023/06/17 08:19:10;;;;;;;9.07;6.50;;;563.80;2432.00;;;;;;4856937;29;20030;-78
2023/06/17 08:21:37;;;;;;;9.70;6.85;;;563.80;2432.00;;;;;;4861505;29;20034;-76
2023/06/17 08:24:22;;;;;;;11.55;7.00;;;563.80;2432.00;;;;;;4859251;29;20481;-73
2023/06/17 08:26:49;;;;;;;13.70;8.00;;;563.90;2432.00;;;;;;4855737;29;20037;-73
2023/06/17 08:29:16;;;;;;;18.63;8.55;;;564.00;2432.00;;;;;;4854052;29;20062;-77
2023/06/17 08:31:43;;;;;;;12.82;8.25;;;564.00;2432.00;;;;;;4854416;29;20078;-73
2023/06/17 08:34:09;;;;;;;14.45;8.77;;;564.00;2432.00;;;;;;4855885;29;20026;-72
2023/06/17 08:36:37;;;;;;;15.15;9.38;;;564.00;2432.00;;;;;;4858473;29;20480;-75
2023/06/17 08:39:03;;;;;;;14.90;9.00;;;563.90;2432.00;;;;;;4849932;29;20041;-73
2023/06/17 08:41:29;;;;;;;17.67;9.43;;;564.00;2432.00;;;;;;4848499;29;20045;-74
2023/06/17 08:44:00;;;;;;;14.88;8.45;;;564.00;2432.00;;;;;;4857070;29;20042;-74
2023/06/17 08:46:27;;;;;;;12.52;8.63;;;564.00;2432.00;;;;;;4855457;29;20101;-75
2023/06/17 08:48:53;;;;;;;11.50;8.00;;;564.00;2432.00;;;;;;4854718;29;20068;-75
2023/06/17 08:51:19;;;;;;;13.00;9.30;;;564.00;2432.00;;;;;;4855946;29;20025;-74
2023/06/17 08:53:47;;;;;;;14.38;8.95;;;564.10;2432.00;;;;;;4861744;29;20029;-75
2023/06/17 08:56:13;;;;;;;14.60;9.90;;;564.10;2432.00;;;;;;4846521;29;20405;-79
2023/06/17 08:58:39;;;;;;;11.65;9.23;;;564.10;2432.00;;;;;;4848601;29;20499;-73
2023/06/17 09:01:08;;;;;;;18.08;9.07;;;564.10;2432.00;;;;;;4852868;29;20030;-74
2023/06/17 09:03:36;;;;;;;12.77;8.82;;;588.80;2432.00;;;;;;4855951;29;20034;-74
2023/06/17 09:06:03;;;;;;;17.42;10.30;;;588.80;2432.00;;;;;;4850426;29;20033;-74
2023/06/17 09:08:30;;;;;;;16.77;9.85;;;588.90;2432.00;;;;;;4848766;29;20124;-79
2023/06/17 09:11:05;;;;;;;15.02;9.95;;;588.80;2432.00;;;;;;4853160;29;20021;-75
2023/06/17 09:13:31;;;;;;;14.25;9.63;;;588.80;2432.00;;;;;;4847611;29;20029;-76
2023/06/17 09:15:56;;;;;;;13.52;9.98;;;588.90;2432.00;;;;;;4856489;29;20390;-75
2023/06/17 09:18:22;;;;;;;16.10;9.57;;;588.90;2432.00;;;;;;4848578;29;20385;-76
2023/06/17 09:20:55;;;;;;;11.75;9.10;;;589.00;2432.00;;;;;;4853375;29;20032;-76
2023/06/17 09:23:23;;;;;;;14.30;9.73;;;;;;;;;;4852452;29;20021;-77
2023/06/17 09:26:00;;;;;;;15.43;10.93;;;;;;;;;;4837738;29;20029;-74
2023/06/17 09:28:26;;;;;;;13.43;11.65;;;589.30;2432.00;;;;;;4853812;29;20021;-75
2023/06/17 09:30:53;;;;;;;17.73;12.55;;;589.20;2432.00;;;;;;4846686;29;20026;-75
2023/06/17 09:33:20;;;;;;;18.48;11.30;;;589.30;2432.00;;;;;;4854772;29;20400;-77
2023/06/17 09:35:47;;;;;;;13.35;11.15;;;589.30;2432.00;;;;;;4861041;29;20030;-76
2023/06/17 09:38:17;;;;;;;14.38;11.40;;;589.20;2432.00;;;;;;4848757;29;20531;-76
2023/06/17 09:40:43;;;;;;;17.77;11.40;;;589.30;2432.00;;;;;;4851030;29;20038;-79
2023/06/17 09:43:12;;;;;;;15.27;11.10;;;589.40;2432.00;;;;;;4837012;29;20484;-73
2023/06/17 09:45:40;;;;;;;16.40;10.80;;;589.50;2432.00;;;;;;4851218;29;20489;-76
2023/06/17 09:48:09;;;;;;;14.13;11.43;;;589.50;2432.00;;;;;;4847907;29;20094;-74
2023/06/17 09:50:37;;;;;;;14.95;11.32;;;589.40;2432.00;;;;;;4847464;29;20026;-77
2023/06/17 09:53:05;;;;;;;16.75;10.98;;;589.50;2432.00;;;;;;4860128;29;20025;-74
2023/06/17 09:55:32;;;;;;;13.77;10.90;;;589.50;2432.00;;;;;;4846512;29;20030;-74
2023/06/17 09:57:59;;;;;;;14.98;10.57;;;589.60;2432.00;;;;;;4856353;29;20069;-74
2023/06/17 10:00:27;;;;;;;14.18;10.45;;;589.70;2432.00;;;;;;4854238;29;20038;-74
2023/06/17 10:02:53;;;;;;;16.73;9.93;;;589.70;2432.00;;;;;;4847227;29;20045;-73
2023/06/17 10:05:23;;;;;;;15.13;10.40;;;614.40;2432.00;;;;;;4843387;29;20022;-74
2023/06/17 10:07:51;;;;;;;13.02;10.07;;;614.40;2432.00;;;;;;4853376;29;20097;-75
2023/06/17 10:10:17;;;;;;;16.75;10.70;;;614.40;2432.00;;;;;;4849970;29;20030;-76
2023/06/17 10:12:44;;;;;;;13.80;10.55;;;614.40;2432.00;;;;;;4853957;29;20473;-76
2023/06/17 10:15:12;;;;;;;12.95;10.02;;;614.40;2432.00;;;;;;4850361;29;20427;-75
2023/06/17 10:17:41;;;;;;;13.95;9.75;;;614.40;2432.00;;;;;;4850737;29;20038;-77
2023/06/17 10:20:10;;;;;;;13.00;9.95;;;614.40;2432.00;;;;;;4853228;29;20025;-76
2023/06/17 10:22:38;;;;;;;13.02;10.07;;;589.70;2432.00;;;;;;4857630;29;20549;-74
2023/06/17 10:25:06;;;;;;;13.18;10.68;;;589.70;2432.00;;;;;;4852472;29;20036;-77
2023/06/17 10:27:32;;;;;;;13.15;10.02;;;589.70;2432.00;;;;;;4848410;29;20051;-75
2023/06/17 10:29:58;;;;;;;13.30;9.43;;;589.60;2432.00;;;;;;4859582;29;20029;-77
2023/06/17 10:32:25;;;;;;;13.48;9.38;;;589.60;2432.00;;;;;;4855597;29;20077;-76
2023/06/17 10:35:06;;;;;;;10.60;8.60;;;589.60;2432.00;;;;;;4857013;29;20132;-73
2023/06/17 10:37:41;;;;;;;11.82;8.27;;;589.70;2432.00;;;;;;4847895;29;20030;-77
2023/06/17 10:40:19;;;;;;;12.77;8.73;;;614.60;2432.00;;;;;;4849227;29;20030;-73
2023/06/17 10:43:02;;;;;;;12.13;9.40;;;614.80;2432.00;;;;;;4851011;29;20037;-74
2023/06/17 10:45:48;;;;;;;13.75;9.82;;;614.90;2432.00;;;;;;4853050;29;20026;-73
2023/06/17 10:48:33;;;;;;;19.20;10.77;;;614.80;2432.00;;;;;;4849526;29;20030;-74
2023/06/17 10:51:02;;;;;;;14.27;9.15;;;614.80;2432.00;;;;;;4854179;29;20050;-74
2023/06/17 10:53:31;;;;;;;17.42;10.02;;;614.90;2432.00;;;;;;4855596;29;20028;-75
2023/06/17 10:55:58;;;;;;;13.35;8.73;;;615.10;2432.00;;;;;;4846904;29;20034;-73
2023/06/17 10:58:50;;;;;;;15.50;10.23;;;615.10;2432.00;;;;;;4847220;29;20045;-73
2023/06/17 11:01:16;;;;;;;14.25;9.48;;;615.00;2432.00;;;;;;4839932;29;20056;-75
2023/06/17 11:03:41;;;;;;;16.17;9.50;;;615.00;2432.00;;;;;;4855230;29;20026;-73
2023/06/17 11:06:09;;;;;;;15.35;9.93;;;614.90;2432.00;;;;;;4844733;29;20367;-74
2023/06/17 11:08:37;;;;;;;18.08;10.02;;;614.80;2432.00;;;;;;4853133;29;20040;-73
2023/06/17 11:11:08;;;;;;;13.13;9.40;;;614.70;2432.00;;;;;;4848996;29;20119;-73
2023/06/17 11:13:34;;;;;;;14.93;10.18;;;614.70;2432.00;;;;;;4844521;29;20028;-73
2023/06/17 11:16:00;;;;;;;14.15;9.05;;;614.80;2432.00;;;;;;4851525;29;20084;-74
2023/06/17 11:18:25;;;;;;;13.75;9.82;;;614.90;2432.00;;;;;;4847599;29;20501;-74
2023/06/17 11:20:51;;;;;;;11.40;9.35;;;615.10;2432.00;;;;;;4852593;29;20105;-74
2023/06/17 11:23:18;;;;;;;13.80;9.30;;;615.20;2432.00;;;;;;4857603;29;20033;-72
2023/06/17 11:25:44;;;;;;;15.48;10.68;;;615.20;2432.00;;;;;;4847332;29;20112;-73
2023/06/17 11:28:11;;;;;;;11.13;9.35;;;615.30;2432.00;;;;;;4847502;29;20170;-73
2023/06/17 11:30:38;;;;;;;12.63;9.40;;;640.00;2432.00;;;;;;4844757;29;20147;-72
2023/06/17 11:33:05;;;;;;;13.02;10.38;;;640.10;2432.00;;;;;;4848250;29;20042;-73
2023/06/17 11:35:30;;;;;;;12.05;9.25;;;640.10;2432.00;;;;;;4838228;29;20476;-73
2023/06/17 11:37:56;;;;;;;12.90;10.25;;;640.20;2432.00;;;;;;4848066;29;20078;-74
2023/06/17 11:40:22;;;;;;;12.90;9.90;;;640.20;2432.00;;;;;;4849143;29;20113;-74
2023/06/17 11:42:48;;;;;;;11.05;8.80;;;640.20;2432.00;;;;;;4852649;29;20392;-75
2023/06/17 11:45:14;;;;;;;12.15;8.77;;;640.20;2432.00;;;;;;4846939;29;20037;-74
2023/06/17 11:47:40;;;;;;;11.50;9.38;;;640.20;2432.00;;;;;;4848539;29;20026;-74
2023/06/17 11:50:07;;;;;;;10.95;8.55;;;640.20;2432.00;;;;;;4848578;29;20481;-73
2023/06/17 11:52:36;;;;;;;11.13;8.88;;;640.20;2432.00;;;;;;4855475;29;20029;-73
2023/06/17 11:55:02;;;;;;;12.43;9.30;;;640.20;2432.00;;;;;;4845322;29;20120;-73
2023/06/17 11:57:29;;;;;;;10.77;9.05;;;640.10;2432.00;;;;;;4848315;29;20485;-73
2023/06/17 12:00:04;;;;;;;11.15;8.35;;;640.10;2432.00;;;;;;4851753;29;20042;-72
2023/06/17 12:02:32;;;;;;;17.08;8.77;;;640.10;2432.00;;;;;;4858806;29;20046;-72
2023/06/17 12:05:02;;;;;;;10.90;8.52;;;640.10;2432.00;;;;;;4848638;29;20038;-73
2023/06/17 12:07:35;;;;;;;13.60;9.70;;;640.00;2432.00;;;;;;4854471;29;20025;-74
2023/06/17 12:10:01;;;;;;;14.93;9.00;;;615.30;2432.00;;;;;;4850525;29;20515;-74